Time;durP1;ratioP1;P1;durP2;ratioP2;P2;SDS_P1;SDS_P2;PMS_P1;PMS_P2;Temp;Humidity;BMP_temperature;BMP_pressure;BME280_temperature;BME280_humidity;BME280_pressure;Samples;Min_cycle;Max_cycle;Signal;HPM_P1;HPM_P2
2022/02/12 00:00:13;;;;;;;22.33;8.53;;;;;;;;;;5146440;27;20461;-77
2022/02/12 00:02:40;;;;;;;27.87;8.83;;;;;;;;;;5144120;27;20473;-78
2022/02/12 00:05:08;;;;;;;24.30;8.17;;;;;;;;;;5147518;27;20520;-76
2022/02/12 00:07:36;;;;;;;33.20;8.93;;;;;;;;;;5146704;27;20476;-77
2022/02/12 00:10:04;;;;;;;23.57;8.43;;;;;;;;;;5142948;27;20510;-76
2022/02/12 00:12:31;;;;;;;25.13;8.83;;;;;;;;;;5140636;27;20487;-78
2022/02/12 00:14:58;;;;;;;39.47;9.10;;;;;;;;;;5152454;27;20444;-77
2022/02/12 00:17:26;;;;;;;29.33;8.63;;;;;;;;;;5144607;27;20461;-77
2022/02/12 00:19:53;;;;;;;33.50;8.93;;;;;;;;;;5144594;27;20795;-77
2022/02/12 00:22:20;;;;;;;32.73;8.80;;;;;;;;;;5143266;27;20471;-77
2022/02/12 00:24:49;;;;;;;37.20;9.33;;;;;;;;;;5144416;27;20455;-77
2022/02/12 00:27:17;;;;;;;31.37;8.80;;;;;;;;;;5141402;27;20452;-77
2022/02/12 00:29:44;;;;;;;29.50;8.63;;;;;;;;;;5138835;27;20528;-76
2022/02/12 00:32:11;;;;;;;27.30;8.87;;;;;;;;;;5140646;27;20489;-77
2022/02/12 00:34:38;;;;;;;28.47;8.97;;;;;;;;;;5144107;27;20449;-76
2022/02/12 00:37:05;;;;;;;32.57;8.97;;;;;;;;;;5144649;27;20964;-77
2022/02/12 00:39:33;;;;;;;24.43;8.73;;;;;;;;;;5144332;27;20543;-76
2022/02/12 00:42:01;;;;;;;29.87;8.53;;;;;;;;;;5140853;27;20504;-77
2022/02/12 00:44:28;;;;;;;28.43;9.70;;;;;;;;;;5143626;27;20444;-76
2022/02/12 00:46:56;;;;;;;41.13;12.57;;;;;;;;;;5143713;27;20468;-77
2022/02/12 00:49:23;;;;;;;31.57;10.73;;;;;;;;;;5142087;27;20881;-76
2022/02/12 00:51:50;;;;;;;25.27;9.93;;;;;;;;;;5141944;27;20488;-77
2022/02/12 00:54:18;;;;;;;26.30;9.70;;;;;;;;;;5140888;27;20544;-77
2022/02/12 00:56:45;;;;;;;29.17;8.50;;;;;;;;;;5147836;27;20866;-77
2022/02/12 00:59:13;;;;;;;27.33;9.37;;;;;;;;;;5145405;27;20460;-77
2022/02/12 01:01:41;;;;;;;27.33;8.33;;;;;;;;;;5148593;27;20548;-77
2022/02/12 01:04:08;;;;;;;32.97;8.23;;;;;;;;;;5146213;27;20950;-78
2022/02/12 01:06:35;;;;;;;33.67;9.30;;;;;;;;;;5146080;27;20812;-77
2022/02/12 01:09:02;;;;;;;26.10;7.87;;;;;;;;;;5144291;27;20548;-77
2022/02/12 01:11:29;;;;;;;27.77;9.30;;;;;;;;;;5145417;27;20473;-76
2022/02/12 01:13:56;;;;;;;25.10;7.77;;;;;;;;;;5146807;27;20977;-76
2022/02/12 01:16:25;;;;;;;23.47;7.70;;;;;;;;;;5146432;27;20440;-76
2022/02/12 01:18:52;;;;;;;29.20;8.23;;;;;;;;;;5144942;27;20488;-76
2022/02/12 01:21:20;;;;;;;35.83;10.43;;;;;;;;;;5146891;27;20453;-78
2022/02/12 01:23:48;;;;;;;34.93;10.17;;;;;;;;;;5144763;27;20441;-77
2022/02/12 01:26:16;;;;;;;33.67;10.67;;;;;;;;;;5143408;27;20522;-77
2022/02/12 01:28:43;;;;;;;31.83;10.23;;;;;;;;;;5146949;27;20481;-77
2022/02/12 01:31:10;;;;;;;33.60;10.33;;;;;;;;;;5144326;27;20490;-77
2022/02/12 01:33:39;;;;;;;35.60;10.20;;;;;;;;;;5145416;27;20450;-77
2022/02/12 01:36:07;;;;;;;31.67;9.57;;;;;;;;;;5146768;27;20530;-77
2022/02/12 01:38:34;;;;;;;24.73;7.63;;;;;;;;;;5142629;27;20477;-77
2022/02/12 01:41:02;;;;;;;28.60;8.40;;;;;;;;;;5144192;27;20477;-78
2022/02/12 01:43:29;;;;;;;28.07;8.40;;;;;;;;;;5144765;27;20463;-76
2022/02/12 01:45:56;;;;;;;28.43;8.60;;;;;;;;;;5144427;27;20565;-77
2022/02/12 01:48:23;;;;;;;21.97;8.10;;;;;;;;;;5144918;27;20560;-76
2022/02/12 01:50:52;;;;;;;28.27;7.97;;;;;;;;;;5148164;27;20881;-78
2022/02/12 01:53:21;;;;;;;25.13;7.70;;;;;;;;;;5142202;27;20487;-77
2022/02/12 01:55:49;;;;;;;24.00;7.87;;;;;;;;;;5143133;27;20495;-77
2022/02/12 01:58:16;;;;;;;28.30;8.27;;;;;;;;;;5142387;27;20508;-77
2022/02/12 02:00:44;;;;;;;29.97;8.10;;;;;;;;;;5144373;27;20476;-77
2022/02/12 02:03:11;;;;;;;26.17;7.60;;;;;;;;;;5145190;27;20447;-76
2022/02/12 02:05:38;;;;;;;32.23;7.83;;;;;;;;;;5144546;27;20466;-77
2022/02/12 02:08:07;;;;;;;19.63;7.90;;;;;;;;;;5143258;27;20942;-77
2022/02/12 02:10:34;;;;;;;24.30;7.37;;;;;;;;;;5145318;27;20469;-78
2022/02/12 02:13:01;;;;;;;28.57;7.63;;;;;;;;;;5144804;27;20591;-76
2022/02/12 02:15:28;;;;;;;29.13;7.87;;;;;;;;;;5142313;27;20446;-77
2022/02/12 02:17:57;;;;;;;23.60;7.77;;;;;;;;;;5145474;27;20468;-77
2022/02/12 02:20:24;;;;;;;28.43;7.50;;;;;;;;;;5147002;27;20458;-77
2022/02/12 02:22:53;;;;;;;25.00;7.00;;;;;;;;;;5143412;27;20804;-77
2022/02/12 02:25:20;;;;;;;21.10;6.80;;;;;;;;;;5145870;27;20907;-77
2022/02/12 02:27:48;;;;;;;21.43;6.77;;;;;;;;;;5143457;27;20449;-76
2022/02/12 02:30:15;;;;;;;24.70;7.10;;;;;;;;;;5148012;27;20453;-77
2022/02/12 02:32:43;;;;;;;23.17;6.90;;;;;;;;;;5142007;27;20848;-76
2022/02/12 02:35:11;;;;;;;21.77;6.73;;;;;;;;;;5145669;27;20454;-77
2022/02/12 02:37:38;;;;;;;24.10;7.07;;;;;;;;;;5145655;27;20471;-77
2022/02/12 02:40:12;;;;;;;20.97;7.50;;;;;;;;;;5144795;27;20819;-78
2022/02/12 02:42:41;;;;;;;22.57;6.60;;;;;;;;;;5144191;27;20506;-77
2022/02/12 02:45:08;;;;;;;18.70;7.27;;;;;;;;;;5147401;27;20461;-77
2022/02/12 02:47:40;;;;;;;19.70;6.60;;;;;;;;;;5142328;27;20826;-77
2022/02/12 02:55:59;;;;;;;19.00;6.70;;;;;;;;;;5142137;27;20460;-78
2022/02/12 02:58:26;;;;;;;19.33;6.37;;;;;;;;;;5142161;27;20611;-77
2022/02/12 03:00:54;;;;;;;18.43;5.80;;;;;;;;;;5141940;27;20483;-77
2022/02/12 03:03:21;;;;;;;26.57;6.93;;;;;;;;;;5142076;27;20468;-77
2022/02/12 03:05:48;;;;;;;17.30;5.90;;;;;;;;;;5141955;27;20517;-77
2022/02/12 03:08:16;;;;;;;23.57;6.23;;;;;;;;;;5142238;27;20453;-77
2022/02/12 03:10:44;;;;;;;20.40;6.17;;;;;;;;;;5145949;27;20484;-78
2022/02/12 03:13:11;;;;;;;21.87;6.13;;;;;;;;;;5145750;27;20571;-77
2022/02/12 03:15:40;;;;;;;20.87;6.00;;;;;;;;;;5142067;27;20846;-77
2022/02/12 03:18:07;;;;;;;16.07;6.00;;;;;;;;;;5142156;27;20502;-78
2022/02/12 03:20:34;;;;;;;18.40;6.07;;;;;;;;;;5145550;27;20548;-76
2022/02/12 03:23:02;;;;;;;31.23;5.77;;;;;;;;;;5144947;27;20450;-77
2022/02/12 03:25:29;;;;;;;20.53;5.90;;;;;;;;;;5147628;27;20456;-78
2022/02/12 03:27:58;;;;;;;22.67;5.80;;;;;;;;;;5142273;27;20513;-77
2022/02/12 03:30:25;;;;;;;24.57;5.43;;;;;;;;;;5140379;27;20837;-77
2022/02/12 03:32:53;;;;;;;24.30;5.30;;;;;;;;;;5143720;27;21117;-77
2022/02/12 03:35:22;;;;;;;20.27;5.33;;;;;;;;;;5142848;27;20457;-77
2022/02/12 03:37:49;;;;;;;20.60;5.47;;;;;;;;;;5140364;27;20458;-77
2022/02/12 03:40:17;;;;;;;21.90;5.77;;;;;;;;;;5143311;27;20818;-78
2022/02/12 03:42:44;;;;;;;19.70;5.10;;;;;;;;;;5140492;27;20958;-77
2022/02/12 03:45:14;;;;;;;22.63;5.33;;;;;;;;;;5142886;27;20688;-76
2022/02/12 03:47:41;;;;;;;22.23;6.33;;;;;;;;;;5144845;27;20460;-77
2022/02/12 03:50:08;;;;;;;22.47;5.30;;;;;;;;;;5148101;27;20456;-77
2022/02/12 03:52:35;;;;;;;14.07;4.83;;;;;;;;;;5143287;27;20476;-78
2022/02/12 03:55:02;;;;;;;24.30;5.77;;;;;;;;;;5141488;27;20487;-77
2022/02/12 03:57:30;;;;;;;25.90;6.17;;;;;;;;;;5140207;27;20458;-78
2022/02/12 03:59:57;;;;;;;23.90;5.80;;;;;;;;;;5143597;27;20828;-78
2022/02/12 04:02:27;;;;;;;17.93;5.30;;;;;;;;;;5144117;27;21049;-77
2022/02/12 04:04:54;;;;;;;19.00;5.00;;;;;;;;;;5140625;27;20453;-77
2022/02/12 04:07:21;;;;;;;17.97;5.37;;;;;;;;;;5138267;27;20463;-77
2022/02/12 04:09:48;;;;;;;16.33;4.73;;;;;;;;;;5143159;27;20444;-77
2022/02/12 04:12:15;;;;;;;18.73;5.03;;;;;;;;;;5140834;27;20488;-77
2022/02/12 04:14:42;;;;;;;17.60;5.10;;;;;;;;;;5143877;27;20458;-77
2022/02/12 04:17:09;;;;;;;22.00;6.23;;;;;;;;;;5143112;27;20488;-78
2022/02/12 04:19:38;;;;;;;29.00;6.47;;;;;;;;;;5141553;27;20491;-77
2022/02/12 04:22:05;;;;;;;21.93;6.20;;;;;;;;;;5144420;27;21265;-77
2022/02/12 04:24:32;;;;;;;20.77;5.80;;;;;;;;;;5141560;27;20500;-77
2022/02/12 04:26:59;;;;;;;18.87;5.17;;;;;;;;;;5140064;27;20456;-77
2022/02/12 04:29:26;;;;;;;17.00;5.93;;;;;;;;;;5142417;27;20537;-78
2022/02/12 04:31:54;;;;;;;20.67;4.93;;;;;;;;;;5146266;27;20479;-76
2022/02/12 04:34:21;;;;;;;13.50;4.50;;;;;;;;;;5143494;27;20465;-77
2022/02/12 04:36:50;;;;;;;15.57;4.33;;;;;;;;;;5146290;27;20470;-76
2022/02/12 04:39:17;;;;;;;20.87;4.87;;;;;;;;;;5146329;27;20449;-77
2022/02/12 04:41:44;;;;;;;22.47;4.70;;;;;;;;;;5146769;27;20565;-78
2022/02/12 04:44:12;;;;;;;14.20;4.70;;;;;;;;;;5145557;27;20457;-78
2022/02/12 04:46:39;;;;;;;18.47;4.70;;;;;;;;;;5152135;27;20460;-79
2022/02/12 04:49:06;;;;;;;29.60;9.63;;;;;;;;;;5147665;27;20457;-76
2022/02/12 04:51:34;;;;;;;16.10;5.53;;;;;;;;;;5144502;27;20488;-79
2022/02/12 04:54:02;;;;;;;13.33;5.23;;;;;;;;;;5149966;27;20491;-79
2022/02/12 04:56:29;;;;;;;19.57;5.70;;;;;;;;;;5150439;27;20936;-79
2022/02/12 04:58:57;;;;;;;17.10;4.90;;;;;;;;;;5149680;27;21005;-79
2022/02/12 05:01:24;;;;;;;20.03;4.87;;;;;;;;;;5144955;27;20485;-78
2022/02/12 05:03:51;;;;;;;15.00;3.87;;;;;;;;;;5150090;27;20501;-78
2022/02/12 05:06:19;;;;;;;13.20;4.23;;;;;;;;;;5146661;27;20509;-78
2022/02/12 05:08:46;;;;;;;16.57;4.13;;;;;;;;;;5147637;27;21035;-78
2022/02/12 05:11:15;;;;;;;12.87;4.03;;;;;;;;;;5149954;27;20476;-79
2022/02/12 05:13:42;;;;;;;17.23;4.23;;;;;;;;;;5144003;27;20484;-79
2022/02/12 05:16:10;;;;;;;11.03;3.60;;;;;;;;;;5150273;27;20446;-78
2022/02/12 05:18:37;;;;;;;20.57;4.50;;;;;;;;;;5147869;27;20470;-79
2022/02/12 05:21:04;;;;;;;17.20;3.97;;;;;;;;;;5148242;27;20491;-79
2022/02/12 05:23:31;;;;;;;16.07;4.00;;;;;;;;;;5146312;27;20457;-79
2022/02/12 05:25:58;;;;;;;15.60;4.27;;;;;;;;;;5146663;27;20452;-79
2022/02/12 05:28:27;;;;;;;17.30;4.30;;;;;;;;;;5146909;27;20478;-78
2022/02/12 05:30:54;;;;;;;12.67;3.73;;;;;;;;;;5150313;27;20556;-78
2022/02/12 05:33:21;;;;;;;21.63;3.87;;;;;;;;;;5149536;27;20472;-79
2022/02/12 05:35:49;;;;;;;16.63;4.40;;;;;;;;;;5150000;27;20541;-78
2022/02/12 05:38:16;;;;;;;20.07;4.30;;;;;;;;;;5145685;27;20544;-78
2022/02/12 05:40:43;;;;;;;16.13;4.10;;;;;;;;;;5142517;27;20918;-79
2022/02/12 05:43:10;;;;;;;16.90;4.17;;;;;;;;;;5148722;27;20468;-78
2022/02/12 05:45:41;;;;;;;17.40;3.83;;;;;;;;;;5146839;27;20464;-79
2022/02/12 05:48:08;;;;;;;11.77;3.77;;;;;;;;;;5146293;27;20600;-79
2022/02/12 05:50:36;;;;;;;16.70;4.60;;;;;;;;;;5145718;27;20476;-79
2022/02/12 05:53:03;;;;;;;20.07;4.50;;;;;;;;;;5149612;27;20888;-79
2022/02/12 05:55:30;;;;;;;11.23;3.87;;;;;;;;;;5148958;27;20455;-79
2022/02/12 05:57:58;;;;;;;13.97;4.37;;;;;;;;;;5149668;27;20547;-79
2022/02/12 06:00:25;;;;;;;10.27;3.10;;;;;;;;;;5146978;27;20462;-79
2022/02/12 06:02:54;;;;;;;14.00;3.63;;;;;;;;;;5146778;27;20536;-78
2022/02/12 06:05:21;;;;;;;22.70;3.93;;;;;;;;;;5146860;27;20475;-79
2022/02/12 06:07:49;;;;;;;11.90;3.53;;;;;;;;;;5147876;27;20981;-78
2022/02/12 06:10:16;;;;;;;18.97;3.90;;;;;;;;;;5147755;27;20950;-78
2022/02/12 06:12:43;;;;;;;17.97;3.67;;;;;;;;;;5147809;27;20484;-78
2022/02/12 06:15:11;;;;;;;23.87;4.63;;;;;;;;;;5149105;27;21054;-78
2022/02/12 06:17:38;;;;;;;12.50;3.33;;;;;;;;;;5147974;27;20973;-79
2022/02/12 06:20:07;;;;;;;15.70;4.03;;;;;;;;;;5146569;27;20460;-78
2022/02/12 06:22:35;;;;;;;13.50;3.53;;;;;;;;;;5146824;27;20455;-79
2022/02/12 06:25:02;;;;;;;14.97;3.37;;;;;;;;;;5149863;27;20452;-79
2022/02/12 06:27:29;;;;;;;21.53;3.30;;;;;;;;;;5145597;27;20453;-78
2022/02/12 06:29:57;;;;;;;20.47;4.20;;;;;;;;;;5149809;27;20452;-79
2022/02/12 06:32:24;;;;;;;9.30;3.43;;;;;;;;;;5146797;27;20561;-77
2022/02/12 06:34:55;;;;;;;13.13;3.53;;;;;;;;;;5146770;27;20578;-78
2022/02/12 06:37:23;;;;;;;18.07;4.13;;;;;;;;;;5144364;27;20960;-79
2022/02/12 06:39:50;;;;;;;15.03;4.10;;;;;;;;;;5144469;27;20907;-79
2022/02/12 06:42:18;;;;;;;12.43;3.83;;;;;;;;;;5145749;27;20556;-78
2022/02/12 06:44:45;;;;;;;15.17;3.93;;;;;;;;;;5147501;27;20544;-79
2022/02/12 06:47:12;;;;;;;17.53;4.53;;;;;;;;;;5146325;27;20505;-78
2022/02/12 06:49:39;;;;;;;17.33;4.27;;;;;;;;;;5145199;27;20471;-79
2022/02/12 06:52:07;;;;;;;14.40;3.47;;;;;;;;;;5149037;27;20988;-79
2022/02/12 06:54:36;;;;;;;14.90;3.00;;;;;;;;;;5145031;27;20483;-78
2022/02/12 06:57:03;;;;;;;12.20;4.13;;;;;;;;;;5146764;27;20544;-79
2022/02/12 06:59:30;;;;;;;14.00;3.73;;;;;;;;;;5148169;27;20441;-78
2022/02/12 07:01:58;;;;;;;14.93;3.57;;;;;;;;;;5147260;27;20477;-79
2022/02/12 07:04:29;;;;;;;18.63;4.57;;;;;;;;;;5147265;27;20491;-79
2022/02/12 07:06:56;;;;;;;13.93;3.60;;;;;;;;;;5146093;27;20947;-79
2022/02/12 07:09:23;;;;;;;20.63;3.77;;;;;;;;;;5150928;27;20477;-79
2022/02/12 07:11:51;;;;;;;21.70;4.07;;;;;;;;;;5141098;27;20501;-78
2022/02/12 07:14:19;;;;;;;17.23;4.50;;;;;;;;;;5143317;27;20575;-78
2022/02/12 07:16:46;;;;;;;19.67;4.60;;;;;;;;;;5146816;27;20484;-78
2022/02/12 07:19:13;;;;;;;18.60;4.23;;;;;;;;;;5145852;27;20556;-79
2022/02/12 07:21:40;;;;;;;17.70;4.00;;;;;;;;;;5149372;27;20484;-77
2022/02/12 07:24:08;;;;;;;19.73;4.57;;;;;;;;;;5149380;27;20461;-78
2022/02/12 07:26:35;;;;;;;14.73;4.87;;;;;;;;;;5144158;27;20493;-79
2022/02/12 07:29:04;;;;;;;17.50;4.70;;;;;;;;;;5142429;27;20457;-79
2022/02/12 07:31:32;;;;;;;15.03;4.17;;;;;;;;;;5144649;27;21113;-79
2022/02/12 07:33:59;;;;;;;14.87;4.10;;;;;;;;;;5146160;27;20528;-77
2022/02/12 07:36:26;;;;;;;14.93;4.50;;;;;;;;;;5151204;27;20518;-79
2022/02/12 07:38:53;;;;;;;15.30;4.10;;;;;;;;;;5148225;27;20465;-78
2022/02/12 07:41:20;;;;;;;11.00;3.63;;;;;;;;;;5144771;27;20481;-78
2022/02/12 07:43:47;;;;;;;15.97;4.20;;;;;;;;;;5144580;27;20460;-79
2022/02/12 07:46:16;;;;;;;11.73;4.00;;;;;;;;;;5144893;27;20456;-79
2022/02/12 07:48:44;;;;;;;16.30;4.50;;;;;;;;;;5144861;27;20453;-79
2022/02/12 07:51:11;;;;;;;19.83;4.60;;;;;;;;;;5147379;27;20851;-79
2022/02/12 07:53:38;;;;;;;14.40;4.30;;;;;;;;;;5146913;27;20555;-78
2022/02/12 07:56:05;;;;;;;15.03;4.83;;;;;;;;;;5145765;27;20567;-78
2022/02/12 07:58:33;;;;;;;18.00;5.07;;;;;;;;;;5144725;27;20492;-78
2022/02/12 08:01:00;;;;;;;12.97;4.60;;;;;;;;;;5145023;27;20481;-78
2022/02/12 08:03:28;;;;;;;18.50;5.53;;;;;;;;;;5141475;27;20561;-79
2022/02/12 08:05:56;;;;;;;13.47;5.00;;;;;;;;;;5151275;27;20929;-79
2022/02/12 08:08:23;;;;;;;16.93;5.50;;;;;;;;;;5149459;27;20460;-79
2022/02/12 08:13:35;;;;;;;63.13;17.13;;;;;;;;;;5147911;27;20472;-79
2022/02/12 08:16:02;;;;;;;31.43;9.13;;;;;;;;;;5150615;27;20480;-78
2022/02/12 08:18:31;;;;;;;28.30;8.03;;;;;;;;;;5150749;27;20471;-77
2022/02/12 08:20:58;;;;;;;26.00;8.63;;;;;;;;;;5150945;27;20938;-79
2022/02/12 08:23:25;;;;;;;23.90;6.80;;;;;;;;;;5148495;27;20545;-80
2022/02/12 08:25:52;;;;;;;18.40;5.50;;;;;;;;;;5150306;27;20547;-77
2022/02/12 08:28:22;;;;;;;17.53;5.43;;;;;;;;;;5154301;27;20452;-79
2022/02/12 08:30:49;;;;;;;13.00;4.60;;;;;;;;;;5151822;27;20486;-79
2022/02/12 08:33:16;;;;;;;16.93;5.23;;;;;;;;;;5157643;27;20819;-79
2022/02/12 08:35:45;;;;;;;14.67;5.57;;;;;;;;;;5153665;27;20552;-78
2022/02/12 08:38:12;;;;;;;25.23;5.80;;;;;;;;;;5157154;27;20441;-78
2022/02/12 08:40:39;;;;;;;14.93;4.97;;;;;;;;;;5148912;27;20462;-78
2022/02/12 08:43:07;;;;;;;19.10;5.77;;;;;;;;;;5152658;27;20954;-79
2022/02/12 08:45:35;;;;;;;14.27;4.50;;;;;;;;;;5152432;27;20461;-79
2022/02/12 08:48:04;;;;;;;14.23;4.87;;;;;;;;;;5157609;27;20456;-80
2022/02/12 08:50:31;;;;;;;15.30;4.60;;;;;;;;;;5155474;27;20480;-78
2022/02/12 08:53:00;;;;;;;12.17;4.23;;;;;;;;;;5156115;27;20479;-80
2022/02/12 08:55:28;;;;;;;13.30;4.37;;;;;;;;;;5149192;27;20488;-79
2022/02/12 08:57:55;;;;;;;14.67;4.13;;;;;;;;;;5151164;27;20468;-79
2022/02/12 09:00:22;;;;;;;14.77;3.87;;;;;;;;;;5153897;27;20558;-78
2022/02/12 09:02:50;;;;;;;19.23;4.60;;;;;;;;;;5149251;27;20525;-78
2022/02/12 09:05:17;;;;;;;22.87;4.27;;;;;;;;;;5147078;27;20481;-79
2022/02/12 09:07:44;;;;;;;14.13;4.40;;;;;;;;;;5143041;27;20452;-78
2022/02/12 09:10:12;;;;;;;13.27;4.37;;;;;;;;;;5148784;27;20456;-79
2022/02/12 09:12:40;;;;;;;16.00;4.97;;;;;;;;;;5140674;27;20542;-76
2022/02/12 09:15:08;;;;;;;17.03;4.67;;;;;;;;;;5150144;27;20542;-80
2022/02/12 09:17:35;;;;;;;18.13;4.33;;;;;;;;;;5149657;27;20803;-80
2022/02/12 09:20:02;;;;;;;18.07;4.20;;;;;;;;;;5150125;27;20441;-80
2022/02/12 09:22:29;;;;;;;21.77;4.50;;;;;;;;;;5153009;27;20461;-80
2022/02/12 09:24:56;;;;;;;12.80;3.97;;;;;;;;;;5153778;27;20473;-81
2022/02/12 09:27:25;;;;;;;17.23;4.40;;;;;;;;;;5150613;27;20455;-79
2022/02/12 09:29:54;;;;;;;19.73;5.10;;;;;;;;;;5152358;27;20449;-80
2022/02/12 09:32:21;;;;;;;16.53;4.87;;;;;;;;;;5155991;27;20457;-81
2022/02/12 09:34:48;;;;;;;29.50;5.63;;;;;;;;;;5152530;27;20476;-80
2022/02/12 09:37:15;;;;;;;21.03;6.60;;;;;;;;;;5158273;27;20195;-80
2022/02/12 09:39:43;;;;;;;23.43;7.53;;;;;;;;;;5155239;27;20440;-79
2022/02/12 09:42:10;;;;;;;19.87;7.63;;;;;;;;;;5150325;27;20557;-80
2022/02/12 09:44:41;;;;;;;20.17;6.37;;;;;;;;;;5148612;27;20215;-79
2022/02/12 09:47:27;;;;;;;16.60;6.23;;;;;;;;;;5147400;27;20460;-80
2022/02/12 09:49:56;;;;;;;19.73;5.67;;;;;;;;;;5150570;27;20495;-79
2022/02/12 09:52:33;;;;;;;21.93;6.07;;;;;;;;;;5158389;27;20265;-81
2022/02/12 09:55:01;;;;;;;17.37;5.53;;;;;;;;;;5153109;27;20215;-80
2022/02/12 09:57:28;;;;;;;19.37;5.63;;;;;;;;;;5154187;27;20191;-80
2022/02/12 09:59:59;;;;;;;20.20;6.10;;;;;;;;;;5150108;27;20508;-82
2022/02/12 10:02:26;;;;;;;19.67;6.70;;;;;;;;;;5150518;27;20256;-80
2022/02/12 10:05:12;;;;;;;20.20;5.97;;;;;;;;;;5151761;27;20202;-79
2022/02/12 10:07:39;;;;;;;18.93;6.00;;;;;;;;;;5147560;27;20196;-80
2022/02/12 10:10:13;;;;;;;19.10;5.97;;;;;;;;;;5151666;27;20211;-79
2022/02/12 10:12:40;;;;;;;26.90;6.63;;;;;;;;;;5153209;27;21055;-79
2022/02/12 10:15:14;;;;;;;19.10;6.40;;;;;;;;;;5153078;27;20220;-79
2022/02/12 10:17:55;;;;;;;24.80;5.63;;;;;;;;;;5151838;27;20579;-79
2022/02/12 10:20:28;;;;;;;21.33;5.63;;;;;;;;;;5152841;27;20227;-80
2022/02/12 10:23:02;;;;;;;17.63;5.80;;;;;;;;;;5151361;27;20263;-79
2022/02/12 10:25:29;;;;;;;13.50;5.50;;;;;;;;;;5150450;27;20227;-79
2022/02/12 10:27:57;;;;;;;17.73;5.73;;;;;;;;;;5148199;27;20208;-80
2022/02/12 10:30:26;;;;;;;21.13;5.50;;;;;;;;;;5146190;27;20211;-79
2022/02/12 10:32:56;;;;;;;23.43;5.90;;;;;;;;;;5149928;27;20225;-80
2022/02/12 10:35:23;;;;;;;25.90;5.43;;;;;;;;;;5151612;27;20223;-80
2022/02/12 10:37:51;;;;;;;16.73;4.47;;;;;;;;;;5148080;27;20236;-81
2022/02/12 10:40:18;;;;;;;17.50;4.73;;;;;;;;;;5149858;27;20235;-79
2022/02/12 10:42:46;;;;;;;15.07;4.57;;;;;;;;;;5147741;27;20230;-79
2022/02/12 10:45:16;;;;;;;15.73;4.77;;;;;;;;;;5149400;27;20192;-80
2022/02/12 10:47:45;;;;;;;14.40;4.33;;;;;;;;;;5150008;27;20605;-80
2022/02/12 10:50:13;;;;;;;12.83;4.33;;;;;;;;;;5151075;27;20662;-80
2022/02/12 10:52:41;;;;;;;12.67;3.43;;;;;;;;;;5149335;27;20291;-79
2022/02/12 10:55:09;;;;;;;16.13;3.77;;;;;;;;;;5146515;27;20219;-79
2022/02/12 10:57:38;;;;;;;13.10;4.10;;;;;;;;;;5145163;27;20296;-80
2022/02/12 11:00:06;;;;;;;12.47;3.90;;;;;;;;;;5149611;27;20207;-79
2022/02/12 11:02:39;;;;;;;13.47;3.10;;;;;;;;;;5147808;27;20220;-80
2022/02/12 11:05:08;;;;;;;10.23;3.07;;;;;;;;;;5150661;27;20211;-80
2022/02/12 11:07:38;;;;;;;13.17;3.73;;;;;;;;;;5149582;27;20290;-79
2022/02/12 11:10:05;;;;;;;13.10;2.90;;;;;;;;;;5151399;27;20199;-79
2022/02/12 11:12:33;;;;;;;11.67;3.97;;;;;;;;;;5151558;27;20274;-79
2022/02/12 11:15:00;;;;;;;13.93;3.67;;;;;;;;;;5151547;27;20207;-79
2022/02/12 11:17:30;;;;;;;12.90;3.70;;;;;;;;;;5150680;27;20188;-80
2022/02/12 11:19:59;;;;;;;14.63;3.73;;;;;;;;;;5157124;27;20219;-78
2022/02/12 11:22:28;;;;;;;11.23;3.10;;;;;;;;;;5150143;27;20713;-79
2022/02/12 11:24:57;;;;;;;8.90;2.83;;;;;;;;;;5147184;27;20224;-79
2022/02/12 11:27:25;;;;;;;18.53;3.53;;;;;;;;;;5152194;27;20238;-79
2022/02/12 11:29:53;;;;;;;18.03;5.57;;;;;;;;;;5151979;27;20690;-81
2022/02/12 11:32:22;;;;;;;17.07;3.13;;;;;;;;;;5148313;27;20735;-79
2022/02/12 11:35:09;;;;;;;17.03;3.33;;;;;;;;;;5151496;27;20223;-79
2022/02/12 11:37:38;;;;;;;12.53;3.17;;;;;;;;;;5151707;27;20664;-80
2022/02/12 11:40:13;;;;;;;7.53;2.77;;;;;;;;;;5146637;27;20205;-78
2022/02/12 11:42:41;;;;;;;13.03;2.57;;;;;;;;;;5148613;27;20194;-79
2022/02/12 11:45:33;;;;;;;7.17;2.50;;;;;;;;;;5148591;27;20279;-79
2022/02/12 11:48:21;;;;;;;12.23;3.13;;;;;;;;;;5125644;27;20223;-79
2022/02/12 11:50:50;;;;;;;10.83;3.23;;;;;;;;;;5146956;27;20338;-80
2022/02/12 11:53:33;;;;;;;15.93;2.93;;;;;;;;;;5146492;27;20242;-79
2022/02/12 11:56:00;;;;;;;9.77;3.13;;;;;;;;;;5151941;27;20227;-79
2022/02/12 11:58:42;;;;;;;7.47;2.30;;;;;;;;;;5149540;27;20216;-77
2022/02/12 12:01:40;;;;;;;10.20;3.00;;;;;;;;;;5156926;27;20223;-78
2022/02/12 12:04:09;;;;;;;13.10;2.60;;;;;;;;;;5154135;27;20316;-76
2022/02/12 12:06:37;;;;;;;11.20;2.97;;;;;;;;;;5153090;27;20601;-79
2022/02/12 12:09:06;;;;;;;11.07;2.90;;;;;;;;;;5154689;27;20213;-77
2022/02/12 12:11:34;;;;;;;9.87;2.97;;;;;;;;;;5152403;27;20287;-78
2022/02/12 12:14:25;;;;;;;10.40;2.33;;;;;;;;;;5150902;27;20197;-79
2022/02/12 12:16:58;;;;;;;12.07;2.87;;;;;;;;;;5137900;27;20206;-78
2022/02/12 12:19:26;;;;;;;8.73;2.77;;;;;;;;;;5143303;27;20226;-79
2022/02/12 12:21:55;;;;;;;10.30;2.60;;;;;;;;;;5143478;27;20251;-78
2022/02/12 12:24:24;;;;;;;7.47;2.93;;;;;;;;;;5146615;27;20738;-78
2022/02/12 12:26:52;;;;;;;9.73;2.67;;;;;;;;;;5142900;27;20932;-79
2022/02/12 12:32:06;;;;;;;10.23;2.37;;;;;;;;;;5136883;27;20694;-78
2022/02/12 12:34:34;;;;;;;6.97;2.07;;;;;;;;;;5139333;27;20196;-79
2022/02/12 12:37:01;;;;;;;6.37;2.40;;;;;;;;;;5140434;27;20678;-78
2022/02/12 12:39:33;;;;;;;9.77;2.50;;;;;;;;;;5144092;27;20201;-79
2022/02/12 12:42:01;;;;;;;9.00;2.60;;;;;;;;;;5144143;27;20223;-77
2022/02/12 12:44:29;;;;;;;6.77;2.10;;;;;;;;;;5143059;27;20200;-78
2022/02/12 12:46:57;;;;;;;7.77;2.00;;;;;;;;;;5139066;27;20235;-78
2022/02/12 12:49:29;;;;;;;8.37;2.53;;;;;;;;;;5139451;27;20991;-78
2022/02/12 12:51:57;;;;;;;14.17;2.57;;;;;;;;;;5143854;27;20228;-78
2022/02/12 12:54:31;;;;;;;13.23;3.93;;;;;;;;;;5143723;27;20199;-78
2022/02/12 12:57:00;;;;;;;8.40;2.47;;;;;;;;;;5141682;27;20195;-78
2022/02/12 12:59:28;;;;;;;4.70;2.03;;;;;;;;;;5143968;27;20646;-78
2022/02/12 13:01:56;;;;;;;8.50;2.50;;;;;;;;;;5140881;27;20220;-79
2022/02/12 13:04:23;;;;;;;6.90;2.37;;;;;;;;;;5142865;27;20203;-78
2022/02/12 13:06:51;;;;;;;10.17;3.00;;;;;;;;;;5144201;27;20196;-79
2022/02/12 13:09:18;;;;;;;5.87;2.33;;;;;;;;;;5142614;27;20196;-79
2022/02/12 13:11:45;;;;;;;11.27;2.60;;;;;;;;;;5145319;27;20212;-79
2022/02/12 13:14:14;;;;;;;9.33;2.23;;;;;;;;;;5144264;27;20200;-79
2022/02/12 13:16:42;;;;;;;5.93;2.00;;;;;;;;;;5145599;27;20279;-78
2022/02/12 13:19:12;;;;;;;7.60;2.37;;;;;;;;;;5148575;27;20210;-78
2022/02/12 13:21:39;;;;;;;10.10;2.50;;;;;;;;;;5148326;27;20283;-79
2022/02/12 13:24:07;;;;;;;10.00;2.77;;;;;;;;;;5146542;27;20204;-79
2022/02/12 13:26:37;;;;;;;9.87;2.47;;;;;;;;;;5147231;27;20210;-78
2022/02/12 13:29:04;;;;;;;9.33;2.30;;;;;;;;;;5144164;27;20249;-78
2022/02/12 13:31:39;;;;;;;9.47;2.03;;;;;;;;;;5145698;27;20255;-78
2022/02/12 13:34:06;;;;;;;9.80;2.23;;;;;;;;;;5147651;27;20560;-78
2022/02/12 13:36:42;;;;;;;5.37;2.00;;;;;;;;;;5150748;27;20304;-79
2022/02/12 13:39:09;;;;;;;10.33;2.70;;;;;;;;;;5151131;27;20228;-78
2022/02/12 13:41:40;;;;;;;13.23;2.33;;;;;;;;;;5150946;27;20728;-78
2022/02/12 13:44:07;;;;;;;7.90;2.27;;;;;;;;;;5146681;27;20282;-81
2022/02/12 13:46:40;;;;;;;6.50;2.47;;;;;;;;;;5152143;27;20282;-81
2022/02/12 13:49:25;;;;;;;7.17;2.00;;;;;;;;;;5144624;27;20195;-81
2022/02/12 13:51:53;;;;;;;9.40;2.13;;;;;;;;;;5151516;27;20290;-81
2022/02/12 13:54:20;;;;;;;6.40;2.20;;;;;;;;;;5149878;27;20211;-80
2022/02/12 13:56:51;;;;;;;6.17;1.70;;;;;;;;;;5148466;27;20224;-81
2022/02/12 13:59:18;;;;;;;5.90;1.50;;;;;;;;;;5150583;27;20196;-81
2022/02/12 14:01:46;;;;;;;5.27;1.57;;;;;;;;;;5148000;27;20573;-82
2022/02/12 14:04:14;;;;;;;6.20;1.93;;;;;;;;;;5147383;27;20257;-80
2022/02/12 14:06:43;;;;;;;10.27;2.13;;;;;;;;;;5145555;27;20284;-81
2022/02/12 14:09:12;;;;;;;12.10;1.83;;;;;;;;;;5140686;27;20286;-80
2022/02/12 14:11:39;;;;;;;4.10;1.60;;;;;;;;;;5139980;27;20227;-80
2022/02/12 14:14:07;;;;;;;11.93;1.80;;;;;;;;;;5142459;27;20215;-80
2022/02/12 14:16:34;;;;;;;5.17;1.70;;;;;;;;;;5139827;27;20357;-81
2022/02/12 14:19:03;;;;;;;5.80;2.10;;;;;;;;;;5143543;27;20286;-80
2022/02/12 14:21:31;;;;;;;6.03;1.93;;;;;;;;;;5147360;27;20309;-82
2022/02/12 14:23:58;;;;;;;9.73;2.03;;;;;;;;;;5146774;27;20295;-82
2022/02/12 14:26:25;;;;;;;7.40;1.63;;;;;;;;;;5142489;27;20576;-81
2022/02/12 14:28:52;;;;;;;5.93;1.80;;;;;;;;;;5143827;27;20203;-81
2022/02/12 14:31:20;;;;;;;6.43;1.93;;;;;;;;;;5144253;27;20310;-80
2022/02/12 14:33:47;;;;;;;5.13;1.70;;;;;;;;;;5149522;27;20893;-80
2022/02/12 14:36:15;;;;;;;7.57;2.00;;;;;;;;;;5147257;27;20220;-81
2022/02/12 14:38:44;;;;;;;8.20;2.00;;;;;;;;;;5145606;27;20294;-80
2022/02/12 14:41:12;;;;;;;9.33;2.30;;;;;;;;;;5146502;27;20220;-79
2022/02/12 14:43:39;;;;;;;7.03;2.20;;;;;;;;;;5146503;27;20233;-79
2022/02/12 14:46:07;;;;;;;8.83;2.10;;;;;;;;;;5149641;27;20194;-80
2022/02/12 14:48:34;;;;;;;5.43;1.60;;;;;;;;;;5151741;27;20214;-80